Time;durP1;ratioP1;P1;durP2;ratioP2;P2;SDS_P1;SDS_P2;PMS_P1;PMS_P2;Temp;Humidity;BMP_temperature;BMP_pressure;BME280_temperature;BME280_humidity;BME280_pressure;Samples;Min_cycle;Max_cycle;Signal;HPM_P1;HPM_P2
2021/11/13 00:01:32;;;;;;;;;;;;;;;28.26;64.31;100938.09;5037304;28;66663;-39
2021/11/13 00:04:05;;;;;;;;;;;;;;;28.29;63.91;100935.00;5034191;28;69348;-35
2021/11/13 00:06:36;;;;;;;;;;;;;;;28.33;64.12;100944.34;5034028;28;66455;-37
2021/11/13 00:09:07;;;;;;;;;;;;;;;28.36;64.19;100952.03;5032137;28;69807;-36
2021/11/13 00:11:38;;;;;;;;;;;;;;;28.39;64.07;100957.03;5034080;28;66894;-36
2021/11/13 00:14:15;;;;;;;;;;;;;;;28.42;64.35;100958.50;5037534;28;70035;-36
2021/11/13 00:16:46;;;;;;;;;;;;;;;28.44;65.14;100962.66;5044174;28;66121;-47
2021/11/13 00:19:16;;;;;;;;;;;;;;;28.48;66.42;100958.53;5052103;27;69999;-37
2021/11/13 00:21:47;;;;;;;;;;;;;;;28.50;66.84;100961.88;5039267;28;66404;-43
2021/11/13 00:24:18;;;;;;;;;;;;;;;28.55;66.65;100960.44;5036602;28;70479;-38
2021/11/13 00:26:50;;;;;;;;;;;;;;;28.59;68.51;100959.84;5043401;28;67183;-39
2021/11/13 00:29:20;;;;;;;;;;;;;;;28.64;69.52;100959.19;5042773;28;69095;-36
2021/11/13 00:31:53;;;;;;;;;;;;;;;28.69;70.46;100964.81;5043190;28;65501;-36
2021/11/13 00:34:25;;;;;;;;;;;;;;;28.72;71.17;100969.81;5041676;28;70385;-36
2021/11/13 00:36:55;;;;;;;;;;;;;;;28.78;71.68;100968.16;5041507;28;67284;-38
2021/11/13 00:39:26;;;;;;;;;;;;;;;28.81;72.89;100974.00;5041943;28;70230;-37
2021/11/13 00:41:57;;;;;;;;;;;;;;;28.83;73.17;100971.91;5049905;28;67003;-37
2021/11/13 00:44:27;;;;;;;;;;;;;;;28.85;74.45;100977.97;5044693;28;69301;-37
2021/11/13 00:46:58;;;;;;;;;;;;;;;28.84;74.81;100976.31;5044365;28;66925;-38
2021/11/13 00:49:29;;;;;;;;;;;;;;;28.88;74.75;100982.94;5044899;28;69533;-37
2021/11/13 00:51:59;;;;;;;;;;;;;;;28.91;75.06;100987.94;5041917;28;67064;-37
2021/11/13 00:54:39;;;;;;;;;;;;;;;28.93;74.27;100988.56;5042290;28;69769;-38
2021/11/13 00:57:10;;;;;;;;;;;;;;;28.94;74.19;100989.41;5043468;28;65750;-39
2021/11/13 00:59:52;;;;;;;;;;;;;;;28.94;73.91;100979.41;5037942;28;69470;-38
2021/11/13 01:02:23;;;;;;;;;;;;;;;28.95;74.19;100991.91;5036879;28;66205;-40
2021/11/13 01:04:53;;;;;;;;;;;;;;;28.98;74.07;100990.66;5035530;28;70378;-37
2021/11/13 01:07:23;;;;;;;;;;;;;;;29.00;73.25;100982.34;5034709;28;66848;-37
2021/11/13 01:09:55;;;;;;;;;;;;;;;29.01;73.31;100984.03;5035037;28;70418;-38
2021/11/13 01:12:26;;;;;;;;;;;;;;;29.01;72.90;100978.63;5043702;28;67137;-37
2021/11/13 01:14:56;;;;;;;;;;;;;;;29.02;73.22;100981.09;5043029;28;70368;-37
2021/11/13 01:17:27;;;;;;;;;;;;;;;29.09;71.67;100983.88;5040611;28;65306;-39
2021/11/13 01:19:57;;;;;;;;;;;;;;;29.15;70.84;100991.13;5044183;28;70167;-38
2021/11/13 01:22:28;;;;;;;;;;;;;;;29.19;70.43;100995.06;5026624;28;66635;-39
2021/11/13 01:25:06;;;;;;;;;;;;;;;29.23;70.05;100999.03;5029813;28;69980;-39
2021/11/13 01:27:40;;;;;;;;;;;;;;;29.27;72.36;100997.56;5024324;28;59362;-39
2021/11/13 01:30:13;;;;;;;;;;;;;;;29.31;72.60;100996.16;5028286;28;69902;-40
2021/11/13 01:32:44;;;;;;;;;;;;;;;29.32;72.00;100995.09;5032910;28;65858;-40
2021/11/13 01:35:16;;;;;;;;;;;;;;;29.35;71.72;101002.78;5006959;28;69654;-40
2021/11/13 01:37:46;;;;;;;;;;;;;;;29.36;71.84;100996.34;5030783;28;66429;-40
2021/11/13 01:40:19;;;;;;;;;;;;;;;29.41;71.57;100998.41;5031239;28;69756;-41
2021/11/13 01:42:50;;;;;;;;;;;;;;;29.46;70.80;100997.81;5018955;28;66010;-38
2021/11/13 01:45:22;;;;;;;;;;;;;;;29.44;70.34;100998.00;5035097;28;69409;-38
2021/11/13 01:47:54;;;;;;;;;;;;;;;29.50;70.10;100996.34;5033915;28;66617;-40
2021/11/13 01:50:27;;;;;;;;;;;;;;;29.54;69.64;101000.31;5036959;28;70127;-39
2021/11/13 01:52:57;;;;;;;;;;;;;;;29.56;69.06;100990.09;5015086;28;66173;-38
2021/11/13 01:55:34;;;;;;;;;;;;;;;29.58;68.19;100985.31;5035029;28;70843;-38
2021/11/13 01:58:06;;;;;;;;;;;;;;;29.63;68.41;100996.38;5013875;28;66262;-38
2021/11/13 02:00:38;;;;;;;;;;;;;;;29.66;68.06;100997.81;5047534;28;69567;-38
2021/11/13 02:03:11;;;;;;;;;;;;;;;29.69;67.76;101003.63;5019852;28;66538;-38
2021/11/13 02:05:41;;;;;;;;;;;;;;;29.73;67.26;101001.38;5021584;28;70703;-38
2021/11/13 02:08:14;;;;;;;;;;;;;;;29.73;67.36;100988.66;5016553;28;66551;-38
2021/11/13 02:10:47;;;;;;;;;;;;;;;29.78;67.24;100991.59;5014207;28;69480;-37
2021/11/13 02:13:18;;;;;;;;;;;;;;;29.81;67.03;100995.72;5000773;28;66192;-37
2021/11/13 02:15:49;;;;;;;;;;;;;;;29.83;66.57;100999.88;5023035;28;70374;-37
2021/11/13 02:18:21;;;;;;;;;;;;;;;29.88;66.90;101003.84;5021086;28;67909;-37
2021/11/13 02:20:55;;;;;;;;;;;;;;;29.92;66.51;101007.75;5025238;28;70982;-37
2021/11/13 02:23:26;;;;;;;;;;;;;;;29.95;66.59;101012.75;5020896;28;66539;-37
2021/11/13 02:25:56;;;;;;;;;;;;;;;29.98;66.82;101006.94;5020527;28;70895;-37
2021/11/13 02:28:30;;;;;;;;;;;;;;;29.91;66.91;100990.72;5016491;28;66867;-38
2021/11/13 02:31:00;;;;;;;;;;;;;;;30.04;66.93;101016.91;5035627;28;69961;-37
2021/11/13 02:33:34;;;;;;;;;;;;;;;30.07;66.61;101027.31;5018421;28;65665;-37
2021/11/13 02:36:06;;;;;;;;;;;;;;;30.11;67.11;101016.88;5021037;28;70573;-37
2021/11/13 02:38:38;;;;;;;;;;;;;;;30.13;67.09;101020.22;5024139;28;66409;-37
2021/11/13 02:41:10;;;;;;;;;;;;;;;30.15;66.35;101016.25;5023065;28;69860;-37
2021/11/13 02:43:42;;;;;;;;;;;;;;;30.12;65.45;101019.41;5022835;28;66375;-40
2021/11/13 02:46:14;;;;;;;;;;;;;;;30.08;64.59;101018.13;5020345;28;70194;-38
2021/11/13 02:48:45;;;;;;;;;;;;;;;30.06;65.58;101006.69;5036197;28;66992;-38
2021/11/13 02:51:16;;;;;;;;;;;;;;;30.10;65.30;101010.66;5022727;28;69161;-39
2021/11/13 02:53:52;;;;;;;;;;;;;;;30.14;65.60;101000.22;5022284;28;66548;-40
2021/11/13 02:56:22;;;;;;;;;;;;;;;30.15;66.55;100991.91;5024766;28;69559;-43
2021/11/13 02:58:53;;;;;;;;;;;;;;;30.18;67.87;100991.47;5021188;28;65148;-38
2021/11/13 03:01:27;;;;;;;;;;;;;;;30.11;69.18;100990.66;5022574;28;70236;-37
2021/11/13 03:03:58;;;;;;;;;;;;;;;30.11;69.02;100996.06;5023855;28;67163;-41
2021/11/13 03:06:29;;;;;;;;;;;;;;;29.99;69.07;100971.56;5020657;28;70305;-39
2021/11/13 03:09:00;;;;;;;;;;;;;;;30.09;68.11;100981.09;5019712;28;66408;-38
2021/11/13 03:11:34;;;;;;;;;;;;;;;30.15;68.77;100988.38;5020688;28;70238;-42
2021/11/13 03:14:06;;;;;;;;;;;;;;;30.16;68.42;100988.16;5020799;28;65584;-37
2021/11/13 03:16:36;;;;;;;;;;;;;;;29.91;66.35;100990.72;5021942;28;70582;-37
2021/11/13 03:19:07;;;;;;;;;;;;;;;29.59;63.82;100976.19;5044790;28;66045;-38
2021/11/13 03:21:42;;;;;;;;;;;;;;;29.30;61.60;100975.53;5026197;28;70402;-38
2021/11/13 03:24:13;;;;;;;;;;;;;;;29.16;63.09;100972.00;5029667;28;65813;-37
2021/11/13 03:26:43;;;;;;;;;;;;;;;29.05;63.12;100963.69;5029444;28;70249;-39
2021/11/13 03:29:17;;;;;;;;;;;;;;;28.93;63.36;100956.16;5033273;28;66828;-39
2021/11/13 03:31:47;;;;;;;;;;;;;;;28.88;63.21;100953.25;5020485;28;69675;-37
2021/11/13 03:34:18;;;;;;;;;;;;;;;28.74;62.79;100956.97;5028416;28;66510;-39
2021/11/13 03:36:48;;;;;;;;;;;;;;;28.66;62.27;100943.66;5027488;28;69295;-36
2021/11/13 03:39:19;;;;;;;;;;;;;;;28.68;62.89;100941.59;5025152;28;67127;-39
2021/11/13 03:41:51;;;;;;;;;;;;;;;28.81;64.06;100936.22;5033417;28;70296;-41
2021/11/13 03:44:22;;;;;;;;;;;;;;;29.10;66.03;100934.19;5012576;28;66491;-39
2021/11/13 03:46:52;;;;;;;;;;;;;;;29.32;67.10;100932.94;5048762;28;69669;-39
2021/11/13 03:49:23;;;;;;;;;;;;;;;29.49;67.29;100924.41;5027581;28;65602;-40
2021/11/13 03:51:53;;;;;;;;;;;;;;;29.53;68.11;100901.31;5044397;28;69016;-38
2021/11/13 03:54:24;;;;;;;;;;;;;;;29.78;67.97;100915.88;5033710;28;65420;-40
2021/11/13 03:56:54;;;;;;;;;;;;;;;29.93;67.95;100907.50;5020669;28;70074;-37
2021/11/13 03:59:26;;;;;;;;;;;;;;;30.05;67.33;100910.34;5027991;28;66475;-38
2021/11/13 04:01:58;;;;;;;;;;;;;;;30.14;67.25;100898.25;5030311;28;70187;-39
2021/11/13 04:04:35;;;;;;;;;;;;;;;30.24;67.22;100895.94;5029471;28;66693;-37
2021/11/13 04:07:17;;;;;;;;;;;;;;;30.35;67.50;100894.44;5009258;28;70736;-37
2021/11/13 04:09:48;;;;;;;;;;;;;;;30.42;67.41;100888.97;5031333;28;67347;-37
2021/11/13 04:12:18;;;;;;;;;;;;;;;30.27;67.05;100887.41;5031483;28;68876;-37
2021/11/13 04:14:49;;;;;;;;;;;;;;;29.95;63.18;100883.78;5032681;28;66615;-37
2021/11/13 04:17:19;;;;;;;;;;;;;;;29.64;61.32;100880.97;5028108;28;70632;-37
2021/11/13 04:19:49;;;;;;;;;;;;;;;29.33;57.89;100875.16;5028255;28;66972;-38
2021/11/13 04:22:20;;;;;;;;;;;;;;;29.07;55.32;100876.03;5031628;28;69050;-38
2021/11/13 04:24:50;;;;;;;;;;;;;;;28.82;53.50;100867.69;5024479;28;65394;-37
2021/11/13 04:27:21;;;;;;;;;;;;;;;28.61;51.79;100866.00;5024601;28;69244;-36
2021/11/13 04:29:51;;;;;;;;;;;;;;;28.45;50.64;100861.81;5030435;28;64623;-37
2021/11/13 04:32:22;;;;;;;;;;;;;;;28.30;49.36;100869.19;5027889;28;70717;-37
2021/11/13 04:35:13;;;;;;;;;;;;;;;28.09;48.01;100856.69;5029866;28;66110;-37
2021/11/13 04:37:43;;;;;;;;;;;;;;;27.95;46.96;100853.13;5039159;28;69721;-50
2021/11/13 04:40:14;;;;;;;;;;;;;;;27.83;46.38;100847.47;5029288;28;64477;-37
2021/11/13 04:42:45;;;;;;;;;;;;;;;27.70;45.57;100846.56;5032050;28;70204;-38
2021/11/13 04:45:15;;;;;;;;;;;;;;;27.58;45.28;100838.19;5037621;28;66284;-37
2021/11/13 04:47:46;;;;;;;;;;;;;;;27.51;45.03;100840.84;5025239;28;70789;-38
2021/11/13 04:50:18;;;;;;;;;;;;;;;27.38;44.44;100821.91;5029133;28;65987;-38
2021/11/13 04:52:49;;;;;;;;;;;;;;;27.31;44.27;100826.44;5036774;28;70619;-37
2021/11/13 04:55:20;;;;;;;;;;;;;;;27.29;44.19;100818.53;5031919;28;65795;-37
2021/11/13 04:57:54;;;;;;;;;;;;;;;27.21;43.85;100816.00;5032626;28;70023;-36
2021/11/13 05:00:26;;;;;;;;;;;;;;;27.18;43.73;100806.44;5011365;28;66167;-39
2021/11/13 05:02:57;;;;;;;;;;;;;;;27.06;43.60;100796.41;5023406;28;70249;-39
2021/11/13 05:05:30;;;;;;;;;;;;;;;27.05;43.71;100784.81;5021438;28;65227;-38
2021/11/13 05:08:01;;;;;;;;;;;;;;;27.01;44.11;100783.53;5029688;28;70103;-38
2021/11/13 05:10:31;;;;;;;;;;;;;;;27.01;43.75;100788.91;5026116;28;66495;-37
2021/11/13 05:13:02;;;;;;;;;;;;;;;26.94;43.43;100777.25;5032750;28;70289;-36
2021/11/13 05:15:33;;;;;;;;;;;;;;;26.99;43.53;100780.19;5013147;28;66120;-39
2021/11/13 05:18:04;;;;;;;;;;;;;;;26.95;43.59;100765.47;5032297;28;69459;-37
2021/11/13 05:20:34;;;;;;;;;;;;;;;26.99;43.32;100774.81;5028860;28;66347;-38
2021/11/13 05:23:05;;;;;;;;;;;;;;;26.93;43.09;100773.72;5029233;28;70400;-38
2021/11/13 05:25:35;;;;;;;;;;;;;;;27.37;43.70;100769.91;5029715;28;66279;-38
2021/11/13 05:28:05;;;;;;;;;;;;;;;27.58;42.99;100752.81;5030155;28;69651;-38
2021/11/13 05:30:36;;;;;;;;;;;;;;;27.71;45.37;100751.19;5027665;28;66331;-38
2021/11/13 05:33:06;;;;;;;;;;;;;;;27.94;48.33;100757.06;5018303;28;70527;-39
2021/11/13 05:35:37;;;;;;;;;;;;;;;28.01;48.40;100747.16;5027689;28;65970;-38
2021/11/13 05:38:07;;;;;;;;;;;;;;;28.03;47.79;100755.06;5021408;28;70689;-38
2021/11/13 05:40:37;;;;;;;;;;;;;;;28.07;46.66;100734.72;5023250;28;66834;-38
2021/11/13 05:43:08;;;;;;;;;;;;;;;28.14;46.01;100738.28;5023204;28;69458;-36
2021/11/13 05:45:39;;;;;;;;;;;;;;;28.21;45.54;100732.88;5021675;28;66085;-36
2021/11/13 05:48:09;;;;;;;;;;;;;;;28.25;45.03;100734.09;5025126;28;69987;-37
2021/11/13 05:50:40;;;;;;;;;;;;;;;28.32;45.11;100726.88;5018098;28;66198;-36
2021/11/13 05:53:10;;;;;;;;;;;;;;;28.31;43.98;100725.22;5024775;28;69743;-36
2021/11/13 05:55:41;;;;;;;;;;;;;;;28.28;43.72;100712.16;5026063;28;64863;-35
2021/11/13 05:58:15;;;;;;;;;;;;;;;28.28;43.28;100699.47;5022264;28;69174;-36
2021/11/13 06:00:46;;;;;;;;;;;;;;;28.35;43.01;100699.47;5021594;28;66438;-36
2021/11/13 06:03:16;;;;;;;;;;;;;;;28.28;42.15;100698.66;5027109;28;69217;-35
2021/11/13 06:05:47;;;;;;;;;;;;;;;28.36;42.37;100693.06;5030994;28;66200;-36
2021/11/13 06:08:17;;;;;;;;;;;;;;;28.37;41.93;100697.41;5030127;28;70014;-36
2021/11/13 06:10:48;;;;;;;;;;;;;;;28.36;42.17;100697.59;5033099;28;67008;-37
2021/11/13 06:13:18;;;;;;;;;;;;;;;28.40;42.28;100691.59;5026376;28;70104;-37
2021/11/13 06:15:48;;;;;;;;;;;;;;;28.39;42.20;100679.16;5031271;28;64884;-35
2021/11/13 06:18:22;;;;;;;;;;;;;;;28.49;42.47;100684.13;5035511;28;69741;-36
2021/11/13 06:20:54;;;;;;;;;;;;;;;28.47;42.95;100676.28;5030206;28;66799;-36
2021/11/13 06:23:24;;;;;;;;;;;;;;;28.54;42.53;100686.22;5030687;28;69934;-36
2021/11/13 06:26:14;;;;;;;;;;;;;;;28.54;42.67;100670.03;5026541;28;65350;-37
2021/11/13 06:28:45;;;;;;;;;;;;;;;28.53;42.47;100663.81;5032854;28;69776;-37
2021/11/13 06:31:15;;;;;;;;;;;;;;;28.57;42.27;100675.00;5034771;28;66049;-37
2021/11/13 06:33:46;;;;;;;;;;;;;;;28.61;42.53;100662.75;5031547;28;69809;-36
2021/11/13 06:36:16;;;;;;;;;;;;;;;28.63;42.30;100660.66;5034438;28;66138;-37
2021/11/13 06:38:47;;;;;;;;;;;;;;;28.63;42.34;100663.38;5034254;28;70031;-43
2021/11/13 06:41:17;;;;;;;;;;;;;;;28.66;41.72;100652.16;5032838;28;66696;-37
2021/11/13 06:43:48;;;;;;;;;;;;;;;28.66;42.19;100635.94;5034111;28;69439;-38
2021/11/13 06:46:18;;;;;;;;;;;;;;;28.65;41.72;100634.31;5035054;28;65846;-37
2021/11/13 06:48:49;;;;;;;;;;;;;;;28.67;41.52;100627.66;5030419;28;69473;-38
2021/11/13 06:51:21;;;;;;;;;;;;;;;28.67;41.45;100618.75;5030020;28;66923;-38
2021/11/13 06:53:52;;;;;;;;;;;;;;;28.71;41.33;100617.25;5031318;28;69065;-38
2021/11/13 06:56:22;;;;;;;;;;;;;;;28.69;40.74;100603.97;5031722;28;66669;-39
2021/11/13 06:58:53;;;;;;;;;;;;;;;28.72;41.41;100608.09;5034846;28;70009;-38
2021/11/13 07:01:23;;;;;;;;;;;;;;;28.76;41.72;100603.97;5024698;28;66610;-39
2021/11/13 07:03:54;;;;;;;;;;;;;;;28.80;41.43;100605.19;5028597;28;69172;-38
2021/11/13 07:06:24;;;;;;;;;;;;;;;28.87;40.90;100606.00;5030986;28;65508;-39
2021/11/13 07:08:55;;;;;;;;;;;;;;;28.88;41.50;100593.31;5035100;28;69805;-37
2021/11/13 07:11:25;;;;;;;;;;;;;;;28.88;41.06;100596.84;5033871;28;66399;-37
2021/11/13 07:13:57;;;;;;;;;;;;;;;28.89;41.21;100606.63;5028157;28;69872;-38
2021/11/13 07:16:28;;;;;;;;;;;;;;;28.93;41.19;100594.34;5031196;28;67293;-36
2021/11/13 07:18:58;;;;;;;;;;;;;;;28.95;40.46;100600.34;5033275;28;70138;-37
2021/11/13 07:21:29;;;;;;;;;;;;;;;28.97;40.79;100594.72;5019213;28;66642;-37
2021/11/13 07:24:00;;;;;;;;;;;;;;;28.95;40.90;100589.56;5025927;28;70493;-38
2021/11/13 07:26:31;;;;;;;;;;;;;;;29.02;40.78;100589.53;5027498;28;65663;-37
2021/11/13 07:29:08;;;;;;;;;;;;;;;29.04;40.45;100587.47;5033631;28;70335;-37
2021/11/13 07:31:38;;;;;;;;;;;;;;;29.06;40.44;100588.09;5026888;28;65530;-41
2021/11/13 07:34:09;;;;;;;;;;;;;;;29.06;40.82;100584.53;5025986;28;70102;-38
2021/11/13 07:36:39;;;;;;;;;;;;;;;29.10;40.49;100593.88;5029307;28;66704;-38
2021/11/13 07:39:10;;;;;;;;;;;;;;;29.09;40.61;100581.44;5022824;28;69764;-37
2021/11/13 07:41:41;;;;;;;;;;;;;;;29.15;40.47;100594.06;5025981;28;66857;-38
2021/11/13 07:44:11;;;;;;;;;;;;;;;29.23;40.38;100591.13;5018099;28;70038;-38
2021/11/13 07:46:42;;;;;;;;;;;;;;;29.32;40.71;100592.50;5013706;28;66410;-39
2021/11/13 07:49:13;;;;;;;;;;;;;;;29.29;39.67;100571.34;5027071;28;70545;-37
2021/11/13 07:51:43;;;;;;;;;;;;;;;29.47;40.21;100588.69;5025857;28;65049;-38
2021/11/13 07:54:14;;;;;;;;;;;;;;;29.51;40.24;100588.03;5024274;28;69425;-39
2021/11/13 07:56:46;;;;;;;;;;;;;;;29.51;39.73;100590.75;5017076;28;66360;-38
2021/11/13 07:59:17;;;;;;;;;;;;;;;29.55;40.19;100591.13;5021545;28;70042;-38
2021/11/13 08:01:47;;;;;;;;;;;;;;;29.62;39.98;100591.91;5026184;28;67035;-43
2021/11/13 08:04:18;;;;;;;;;;;;;;;29.67;39.74;100584.03;5020915;28;70183;-38
2021/11/13 08:06:49;;;;;;;;;;;;;;;29.72;39.70;100603.09;5023156;28;67111;-37
2021/11/13 08:09:19;;;;;;;;;;;;;;;29.71;39.81;100585.22;5020574;28;69101;-38
2021/11/13 08:11:50;;;;;;;;;;;;;;;29.69;40.03;100592.72;5019355;28;66071;-40
2021/11/13 08:14:20;;;;;;;;;;;;;;;29.67;39.53;100578.63;5029376;28;71146;-39
2021/11/13 08:16:52;;;;;;;;;;;;;;;29.67;39.76;100578.63;5029783;28;67040;-38
2021/11/13 08:19:22;;;;;;;;;;;;;;;29.70;40.00;100571.91;5027342;28;69075;-38
2021/11/13 08:21:53;;;;;;;;;;;;;;;29.55;39.26;100542.47;5021407;28;66218;-37
2021/11/13 08:24:23;;;;;;;;;;;;;;;29.68;39.32;100557.81;5029186;28;69851;-38
2021/11/13 08:26:54;;;;;;;;;;;;;;;29.78;39.31;100575.19;5030234;28;67071;-40
2021/11/13 08:29:27;;;;;;;;;;;;;;;29.78;39.10;100568.94;5027600;28;70282;-38
2021/11/13 08:31:58;;;;;;;;;;;;;;;29.77;39.38;100562.72;5026203;28;66879;-39
2021/11/13 08:34:29;;;;;;;;;;;;;;;29.82;39.43;100571.00;5028891;28;70362;-37
2021/11/13 08:36:59;;;;;;;;;;;;;;;29.84;39.44;100585.13;5025390;28;66776;-38
2021/11/13 08:39:34;;;;;;;;;;;;;;;29.90;39.26;100585.31;5029822;28;70564;-36
2021/11/13 08:42:14;;;;;;;;;;;;;;;29.91;38.72;100595.06;5027463;28;66378;-36
2021/11/13 08:44:45;;;;;;;;;;;;;;;29.91;38.54;100593.19;5024789;28;70593;-36
2021/11/13 08:47:16;;;;;;;;;;;;;;;29.92;39.14;100594.00;5024787;28;66294;-37
2021/11/13 08:49:47;;;;;;;;;;;;;;;29.98;37.63;100607.47;5034173;28;69294;-37
2021/11/13 08:52:18;;;;;;;;;;;;;;;29.92;38.63;100607.50;5028203;28;65598;-38
2021/11/13 08:54:50;;;;;;;;;;;;;;;29.94;38.10;100608.97;5020545;28;70098;-38
2021/11/13 08:57:21;;;;;;;;;;;;;;;29.90;38.49;100615.03;5022325;28;65750;-37
2021/11/13 08:59:52;;;;;;;;;;;;;;;29.96;38.26;100620.38;5027354;28;69136;-38
2021/11/13 09:02:25;;;;;;;;;;;;;;;29.93;38.35;100620.00;5030586;28;66802;-37
2021/11/13 09:04:56;;;;;;;;;;;;;;;30.17;39.52;100632.72;5025671;28;69048;-37
2021/11/13 09:07:26;;;;;;;;;;;;;;;30.32;56.43;100634.28;5033091;28;66465;-37
2021/11/13 09:09:57;;;;;;;;;;;;;;;30.68;55.97;100625.38;5034524;28;70553;-37
2021/11/13 09:12:28;;;;;;;;;;;;;;;30.99;55.30;100629.00;5029995;28;66545;-37
2021/11/13 09:15:03;;;;;;;;;;;;;;;31.22;55.24;100634.53;5025757;28;70082;-38
2021/11/13 09:17:34;;;;;;;;;;;;;;;31.43;55.29;100646.81;5032130;28;65492;-37
2021/11/13 09:20:06;;;;;;;;;;;;;;;31.63;55.06;100648.41;5032234;28;70623;-37
2021/11/13 09:22:37;;;;;;;;;;;;;;;31.77;55.65;100641.72;5037522;28;66182;-42
2021/11/13 09:25:09;;;;;;;;;;;;;;;31.91;55.72;100648.63;5031168;28;69284;-37
2021/11/13 09:27:42;;;;;;;;;;;;;;;32.02;55.70;100645.09;5026497;28;65712;-37
2021/11/13 09:30:14;;;;;;;;;;;;;;;32.15;55.75;100637.78;5030317;28;69964;-37
2021/11/13 09:32:46;;;;;;;;;;;;;;;32.23;56.34;100640.16;5026736;28;66605;-39
2021/11/13 09:35:18;;;;;;;;;;;;;;;32.32;56.10;100644.19;5030326;28;69988;-37
2021/11/13 09:37:49;;;;;;;;;;;;;;;32.39;56.21;100639.44;5022346;28;66906;-37
2021/11/13 09:40:21;;;;;;;;;;;;;;;32.45;55.92;100641.22;5036472;28;69275;-38
2021/11/13 09:42:53;;;;;;;;;;;;;;;32.52;56.24;100648.47;5035509;28;66007;-36
2021/11/13 09:45:24;;;;;;;;;;;;;;;32.58;55.96;100652.94;5032162;28;69286;-36
2021/11/13 09:48:00;;;;;;;;;;;;;;;32.63;56.28;100659.31;5023011;28;66584;-36
2021/11/13 09:50:33;;;;;;;;;;;;;;;32.67;56.15;100656.94;5027256;28;69667;-37
2021/11/13 09:53:06;;;;;;;;;;;;;;;32.71;56.33;100669.81;5031876;28;65700;-43
2021/11/13 09:55:36;;;;;;;;;;;;;;;32.74;56.44;100681.28;5030831;28;70224;-37
2021/11/13 09:58:07;;;;;;;;;;;;;;;32.77;56.50;100684.34;5032401;28;65609;-37
2021/11/13 10:00:39;;;;;;;;;;;;;;;32.80;56.75;100686.56;5024568;28;69211;-36
2021/11/13 10:03:10;;;;;;;;;;;;;;;32.84;56.33;100689.63;5027016;28;66332;-37
2021/11/13 10:05:40;;;;;;;;;;;;;;;32.85;57.16;100686.69;5029472;28;70026;-37
2021/11/13 10:08:11;;;;;;;;;;;;;;;32.81;57.25;100680.06;5031711;28;66564;-37
2021/11/13 10:10:42;;;;;;;;;;;;;;;32.88;57.43;100694.34;5028267;28;70140;-38
2021/11/13 10:13:23;;;;;;;;;;;;;;;32.89;57.63;100704.16;5027334;28;65948;-36
2021/11/13 10:15:58;;;;;;;;;;;;;;;32.90;57.52;100711.25;5031968;28;69813;-36
2021/11/13 10:18:31;;;;;;;;;;;;;;;32.91;57.70;100722.94;5023531;28;66635;-37
2021/11/13 10:21:08;;;;;;;;;;;;;;;32.90;58.19;100727.56;5032692;28;69967;-37
2021/11/13 10:23:47;;;;;;;;;;;;;;;32.89;58.20;100736.75;5021483;28;65405;-37
2021/11/13 10:26:22;;;;;;;;;;;;;;;32.89;58.60;100747.63;5030610;28;70245;-42
2021/11/13 10:29:02;;;;;;;;;;;;;;;32.90;58.25;100748.44;5025173;28;66751;-36
2021/11/13 10:31:35;;;;;;;;;;;;;;;32.89;58.50;100753.06;5027230;28;69204;-37
2021/11/13 10:34:10;;;;;;;;;;;;;;;32.88;58.67;100767.72;5029788;28;66358;-37
2021/11/13 10:36:42;;;;;;;;;;;;;;;32.87;58.86;100774.19;5028949;28;70629;-37
2021/11/13 10:39:12;;;;;;;;;;;;;;;32.87;58.75;100785.06;5027948;28;66386;-37
2021/11/13 10:41:54;;;;;;;;;;;;;;;32.86;58.88;100775.25;5032044;28;70009;-37
2021/11/13 10:44:29;;;;;;;;;;;;;;;32.86;58.80;100785.31;5026836;28;66252;-37
2021/11/13 10:47:23;;;;;;;;;;;;;;;32.84;58.75;100780.09;5031652;28;70026;-37
2021/11/13 10:49:54;;;;;;;;;;;;;;;32.83;59.07;100797.47;5025807;28;65640;-37
2021/11/13 10:52:24;;;;;;;;;;;;;;;32.83;58.94;100793.94;5033041;28;69103;-36
2021/11/13 10:54:54;;;;;;;;;;;;;;;32.82;58.77;100795.81;5031650;28;66649;-37
2021/11/13 10:57:27;;;;;;;;;;;;;;;32.80;58.90;100792.50;5033093;28;69978;-37
2021/11/13 11:00:17;;;;;;;;;;;;;;;32.80;59.44;100795.22;5033183;28;66450;-38
2021/11/13 11:03:03;;;;;;;;;;;;;;;32.78;59.29;100800.06;5030486;28;70355;-37
2021/11/13 11:05:49;;;;;;;;;;;;;;;32.76;59.52;100807.59;5028079;28;67385;-37
2021/11/13 11:08:29;;;;;;;;;;;;;;;32.64;60.04;100814.94;5032721;28;69748;-37
2021/11/13 11:11:01;;;;;;;;;;;;;;;32.30;61.17;100819.19;5033548;28;66456;-37
2021/11/13 11:13:51;;;;;;;;;;;;;;;32.09;61.85;100815.09;5032525;28;69215;-39
2021/11/13 11:16:23;;;;;;;;;;;;;;;31.96;62.60;100826.97;5036063;28;66591;-37
2021/11/13 11:18:55;;;;;;;;;;;;;;;31.92;63.14;100823.88;5034707;28;70212;-37
2021/11/13 11:21:38;;;;;;;;;;;;;;;31.86;63.09;100829.38;5033370;28;66647;-37
2021/11/13 11:24:18;;;;;;;;;;;;;;;32.05;62.30;100829.13;5028492;28;69787;-37
2021/11/13 11:26:53;;;;;;;;;;;;;;;32.18;61.69;100838.13;5023874;28;65799;-37
2021/11/13 11:29:24;;;;;;;;;;;;;;;32.23;61.72;100841.84;5037883;28;69879;-37
2021/11/13 11:31:56;;;;;;;;;;;;;;;32.24;61.43;100843.50;5032937;28;65758;-37
2021/11/13 11:34:41;;;;;;;;;;;;;;;32.28;61.50;100855.53;5033424;28;69395;-38
2021/11/13 11:37:17;;;;;;;;;;;;;;;32.28;61.37;100865.56;5049391;28;66683;-37
2021/11/13 11:39:49;;;;;;;;;;;;;;;32.27;61.37;100859.31;5030611;28;69860;-37
2021/11/13 11:42:24;;;;;;;;;;;;;;;32.31;60.98;100870.53;5029922;28;65624;-38
2021/11/13 11:44:58;;;;;;;;;;;;;;;32.28;61.25;100871.00;5031298;28;71418;-38
2021/11/13 11:47:30;;;;;;;;;;;;;;;32.23;61.63;100876.28;5031341;28;65942;-37
2021/11/13 11:50:05;;;;;;;;;;;;;;;32.19;61.94;100865.06;5031907;28;70435;-38
2021/11/13 11:52:37;;;;;;;;;;;;;;;32.07;61.77;100879.63;5032450;28;67130;-38
2021/11/13 11:55:09;;;;;;;;;;;;;;;32.13;61.58;100878.72;5031713;28;70315;-38
2021/11/13 11:57:42;;;;;;;;;;;;;;;32.16;61.31;100894.56;5026959;28;66317;-37
2021/11/13 12:00:12;;;;;;;;;;;;;;;32.17;61.16;100897.03;5028095;28;70275;-38
2021/11/13 12:02:45;;;;;;;;;;;;;;;32.20;60.82;100912.03;5024235;28;66253;-38
2021/11/13 12:05:19;;;;;;;;;;;;;;;32.19;60.82;100904.94;5022980;28;69442;-37
2021/11/13 12:07:50;;;;;;;;;;;;;;;32.15;61.12;100915.44;5031891;28;65702;-37
2021/11/13 12:10:21;;;;;;;;;;;;;;;32.17;60.94;100917.91;5028927;28;70363;-37
2021/11/13 12:13:06;;;;;;;;;;;;;;;32.13;61.07;100916.72;5035306;28;66511;-37
2021/11/13 12:15:49;;;;;;;;;;;;;;;32.10;61.45;100925.31;5034082;28;69846;-37
2021/11/13 12:18:27;;;;;;;;;;;;;;;32.11;61.30;100921.53;5033052;28;67233;-37
2021/11/13 12:21:03;;;;;;;;;;;;;;;32.10;61.21;100930.75;5035542;28;70363;-37
2021/11/13 12:23:39;;;;;;;;;;;;;;;32.04;61.31;100925.16;5035074;28;65306;-37
2021/11/13 12:26:12;;;;;;;;;;;;;;;32.09;61.39;100939.94;5017681;28;70110;-38
2021/11/13 12:28:43;;;;;;;;;;;;;;;32.00;61.60;100934.81;5022055;28;66082;-38
2021/11/13 12:31:19;;;;;;;;;;;;;;;32.04;61.63;100944.16;5018182;28;70264;-38
2021/11/13 12:33:51;;;;;;;;;;;;;;;32.04;61.61;100952.31;5025906;28;66483;-38
2021/11/13 12:36:24;;;;;;;;;;;;;;;32.02;61.47;100951.69;5029451;28;70123;-37
2021/11/13 12:38:57;;;;;;;;;;;;;;;32.02;62.06;100946.25;5021947;28;66659;-36
2021/11/13 12:41:42;;;;;;;;;;;;;;;32.00;61.51;100951.09;5024966;28;70148;-40
2021/11/13 12:44:25;;;;;;;;;;;;;;;31.93;61.89;100961.19;5024234;28;66857;-37
2021/11/13 12:47:17;;;;;;;;;;;;;;;31.93;62.04;100961.19;5026737;28;70566;-37
2021/11/13 12:49:51;;;;;;;;;;;;;;;31.92;61.77;100981.22;5035608;28;65027;-38
2021/11/13 12:52:32;;;;;;;;;;;;;;;31.89;61.63;100981.66;5019334;28;69954;-37
2021/11/13 12:55:07;;;;;;;;;;;;;;;31.89;62.19;100987.06;5033472;28;66836;-37
2021/11/13 12:58:01;;;;;;;;;;;;;;;31.88;61.80;100988.13;5019515;28;70242;-38
2021/11/13 13:00:45;;;;;;;;;;;;;;;31.88;61.96;101003.59;5036629;28;65717;-37
2021/11/13 13:03:36;;;;;;;;;;;;;;;31.85;61.89;101002.16;5016337;28;70483;-38